createdAt,value
2018-09-29T00:00:38.053Z,16.87
2018-09-29T00:03:04.053Z,16.82
2018-09-29T00:05:29.971Z,16.70
2018-09-29T00:07:55.915Z,16.63
2018-09-29T00:10:22.009Z,16.58
2018-09-29T00:12:47.841Z,16.58
2018-09-29T00:15:13.781Z,16.60
2018-09-29T00:17:39.738Z,16.55
2018-09-29T00:20:05.732Z,16.47
2018-09-29T00:22:31.673Z,16.42
2018-09-29T00:24:57.603Z,16.40
2018-09-29T00:27:23.564Z,16.41
2018-09-29T00:29:49.535Z,16.45
2018-09-29T00:32:15.521Z,16.44
2018-09-29T00:34:41.482Z,16.40
2018-09-29T00:37:07.455Z,16.28
2018-09-29T00:39:33.406Z,16.25
2018-09-29T00:41:59.367Z,16.19
2018-09-29T00:44:25.310Z,16.17
2018-09-29T00:46:51.278Z,16.25
2018-09-29T00:49:17.210Z,16.35
2018-09-29T00:51:43.181Z,16.34
2018-09-29T00:54:09.217Z,16.28
2018-09-29T00:56:35.203Z,16.24
2018-09-29T00:59:01.140Z,16.20
2018-09-29T01:01:27.118Z,16.20
2018-09-29T01:03:53.044Z,16.26
2018-09-29T01:06:19.039Z,16.27
2018-09-29T01:08:44.983Z,16.26
2018-09-29T01:11:10.953Z,16.19
2018-09-29T01:13:36.921Z,16.01
2018-09-29T01:16:02.894Z,15.90
2018-09-29T01:18:28.845Z,15.78
2018-09-29T01:20:54.812Z,15.80
2018-09-29T01:23:20.817Z,15.83
2018-09-29T01:25:46.812Z,15.83
2018-09-29T01:28:12.753Z,15.83
2018-09-29T01:30:38.723Z,15.78
2018-09-29T01:33:04.708Z,15.66
2018-09-29T01:35:30.664Z,15.69
2018-09-29T01:37:56.608Z,15.76
2018-09-29T01:40:22.581Z,15.80
2018-09-29T01:42:48.543Z,15.84
2018-09-29T01:45:14.503Z,15.85
2018-09-29T01:47:40.528Z,15.91
2018-09-29T01:50:06.500Z,15.89
2018-09-29T01:52:32.450Z,15.90
2018-09-29T01:54:58.397Z,15.96
2018-09-29T01:57:24.399Z,15.98
2018-09-29T01:59:50.331Z,15.88
2018-09-29T02:02:16.291Z,15.70
2018-09-29T02:04:42.253Z,15.50
2018-09-29T02:07:08.206Z,15.42
2018-09-29T02:09:34.148Z,15.35
2018-09-29T02:12:00.096Z,15.26
2018-09-29T02:14:26.057Z,15.32
2018-09-29T02:16:52.023Z,15.37
2018-09-29T02:19:17.956Z,15.38
2018-09-29T02:21:43.942Z,15.36
2018-09-29T02:24:09.901Z,15.31
2018-09-29T02:26:35.875Z,15.23
2018-09-29T02:29:01.937Z,15.18
2018-09-29T02:31:27.837Z,15.13
2018-09-29T02:33:53.789Z,15.20
2018-09-29T02:36:19.760Z,15.28
2018-09-29T02:38:45.721Z,15.37
2018-09-29T02:41:11.714Z,15.45
2018-09-29T02:43:37.679Z,15.48
2018-09-29T02:46:03.743Z,15.38
2018-09-29T02:48:29.690Z,15.32
2018-09-29T02:50:55.631Z,15.24
2018-09-29T02:53:21.601Z,15.22
2018-09-29T02:55:47.539Z,15.20
2018-09-29T02:58:13.489Z,15.23
2018-09-29T03:00:39.442Z,15.29
2018-09-29T03:03:05.394Z,15.14
2018-09-29T03:05:31.334Z,15.03
2018-09-29T03:07:57.274Z,14.95
2018-09-29T03:10:23.221Z,14.90
2018-09-29T03:12:49.181Z,14.83
2018-09-29T03:15:15.121Z,14.82
2018-09-29T03:17:41.081Z,14.81
2018-09-29T03:20:07.057Z,14.90
2018-09-29T03:22:32.992Z,14.95
2018-09-29T03:24:58.948Z,15.00
2018-09-29T03:27:24.901Z,15.03
2018-09-29T03:29:50.851Z,14.98
2018-09-29T03:32:16.799Z,14.97
2018-09-29T03:34:42.770Z,15.01
2018-09-29T03:37:08.728Z,15.04
2018-09-29T03:39:34.690Z,15.07
2018-09-29T03:42:00.621Z,15.08
2018-09-29T03:44:26.553Z,15.05
2018-09-29T03:46:52.512Z,14.82
2018-09-29T03:49:18.480Z,14.66
2018-09-29T03:51:44.435Z,14.60
2018-09-29T03:54:10.388Z,14.56
2018-09-29T03:56:36.322Z,14.59
2018-09-29T03:59:02.310Z,14.65
2018-09-29T04:01:28.265Z,14.75
2018-09-29T04:03:54.216Z,14.76
2018-09-29T04:06:20.162Z,14.75
2018-09-29T04:08:46.132Z,14.74
2018-09-29T04:11:12.076Z,14.65
2018-09-29T04:13:38.107Z,14.64
2018-09-29T04:16:04.041Z,14.63
2018-09-29T04:18:30.024Z,14.54
2018-09-29T04:20:56.037Z,14.57
2018-09-29T04:23:22.050Z,14.43
2018-09-29T04:25:47.998Z,14.36
2018-09-29T04:28:13.979Z,14.34
2018-09-29T04:30:39.970Z,14.34
2018-09-29T04:33:05.916Z,14.31
2018-09-29T04:35:31.964Z,14.35
2018-09-29T04:37:57.928Z,14.38
2018-09-29T04:40:23.884Z,14.35
2018-09-29T04:42:49.859Z,14.28
2018-09-29T04:45:15.793Z,14.39
2018-09-29T04:47:41.740Z,14.30
2018-09-29T04:50:07.697Z,14.37
2018-09-29T04:52:33.660Z,14.31
2018-09-29T04:54:59.622Z,14.33
2018-09-29T04:57:25.588Z,14.45
2018-09-29T04:59:51.517Z,14.48
2018-09-29T05:02:17.486Z,14.39
2018-09-29T05:04:43.453Z,14.28
2018-09-29T05:07:09.404Z,14.22
2018-09-29T05:09:35.359Z,14.39
2018-09-29T05:12:01.347Z,14.48
2018-09-29T05:14:27.307Z,14.50
2018-09-29T05:16:53.283Z,14.54
2018-09-29T05:19:19.278Z,14.59
2018-09-29T05:21:45.214Z,14.67
2018-09-29T05:24:11.213Z,14.70
2018-09-29T05:26:37.167Z,14.74
2018-09-29T05:29:03.140Z,14.76
2018-09-29T05:31:29.089Z,14.87
2018-09-29T05:33:55.061Z,14.84
2018-09-29T05:36:21.024Z,14.85
2018-09-29T05:38:46.998Z,14.73
2018-09-29T05:41:12.937Z,14.56
2018-09-29T05:43:38.907Z,14.62
2018-09-29T05:46:04.848Z,14.73
2018-09-29T05:48:30.814Z,14.83
2018-09-29T05:50:56.785Z,14.96
2018-09-29T05:53:22.737Z,15.16
2018-09-29T05:55:48.698Z,15.36
2018-09-29T05:58:14.760Z,15.48
2018-09-29T06:00:40.813Z,15.53
2018-09-29T06:03:06.669Z,15.61
2018-09-29T06:05:32.687Z,15.81
2018-09-29T06:07:58.607Z,15.94
2018-09-29T06:10:24.567Z,16.13
2018-09-29T06:12:50.517Z,16.33
2018-09-29T06:15:16.459Z,16.59
2018-09-29T06:17:42.403Z,16.77
2018-09-29T06:20:08.361Z,16.93
2018-09-29T06:22:34.349Z,17.09
2018-09-29T06:25:00.293Z,17.20
2018-09-29T06:27:26.266Z,17.32
2018-09-29T06:29:52.192Z,17.48
2018-09-29T06:32:18.142Z,17.61
2018-09-29T06:34:44.081Z,17.72
2018-09-29T06:37:10.022Z,17.83
2018-09-29T06:39:35.971Z,17.93
2018-09-29T06:42:01.919Z,18.07
2018-09-29T06:44:27.880Z,18.25
2018-09-29T06:46:53.862Z,18.39
2018-09-29T06:49:19.825Z,18.67
2018-09-29T06:51:45.766Z,18.92
2018-09-29T06:54:11.778Z,18.94
2018-09-29T06:56:37.723Z,19.02
2018-09-29T06:59:03.656Z,19.14
2018-09-29T07:01:29.626Z,19.22
2018-09-29T07:03:55.584Z,19.33
2018-09-29T07:06:21.537Z,19.31
2018-09-29T07:08:47.473Z,19.42
2018-09-29T07:11:13.411Z,19.51
2018-09-29T07:13:39.356Z,19.59
2018-09-29T07:16:05.332Z,19.62
2018-09-29T07:18:32.280Z,19.78
2018-09-29T07:20:58.330Z,19.95
2018-09-29T07:23:24.351Z,20.09
2018-09-29T07:25:50.318Z,20.18
2018-09-29T07:28:16.284Z,20.38
2018-09-29T07:30:42.290Z,20.61
2018-09-29T07:33:08.382Z,20.62
2018-09-29T07:35:34.336Z,20.76
2018-09-29T07:38:00.283Z,20.88
2018-09-29T07:40:28.322Z,20.95
2018-09-29T07:42:54.267Z,21.13
2018-09-29T07:45:20.324Z,21.32
2018-09-29T07:47:46.262Z,21.46
2018-09-29T07:50:12.215Z,21.55
2018-09-29T07:52:38.176Z,21.61
2018-09-29T07:55:04.157Z,21.65
2018-09-29T07:57:30.133Z,21.62
2018-09-29T07:59:56.097Z,21.61
2018-09-29T08:02:22.052Z,21.59
2018-09-29T08:04:48.105Z,21.59
2018-09-29T08:07:14.064Z,21.64
2018-09-29T08:09:40.019Z,21.63
2018-09-29T08:12:05.945Z,21.68
2018-09-29T08:14:31.926Z,21.70
2018-09-29T08:16:57.877Z,21.69
2018-09-29T08:19:23.832Z,21.67
2018-09-29T08:21:49.802Z,21.75
2018-09-29T08:24:15.993Z,21.81
2018-09-29T08:26:41.998Z,21.78
2018-09-29T08:29:07.949Z,21.75
2018-09-29T08:31:33.892Z,21.71
2018-09-29T08:33:59.876Z,21.63
2018-09-29T08:36:25.845Z,21.54
2018-09-29T08:38:51.821Z,21.40
2018-09-29T08:41:17.793Z,21.34
2018-09-29T08:43:43.860Z,21.29
2018-09-29T08:46:09.807Z,21.35
2018-09-29T08:48:35.796Z,21.44
2018-09-29T08:51:01.851Z,21.55
2018-09-29T08:53:27.874Z,21.73
2018-09-29T08:55:54.907Z,21.76
2018-09-29T08:58:20.890Z,21.78
2018-09-29T09:00:46.907Z,21.79
2018-09-29T09:03:12.934Z,21.90
2018-09-29T09:05:38.924Z,21.89
2018-09-29T09:08:04.964Z,21.80
2018-09-29T09:10:31.062Z,21.82
2018-09-29T09:12:57.057Z,21.94
2018-09-29T09:15:23.033Z,21.86
2018-09-29T09:17:48.993Z,21.70
2018-09-29T09:20:14.954Z,21.51
2018-09-29T09:22:41.005Z,21.69
2018-09-29T09:25:07.006Z,21.74
2018-09-29T09:27:33.011Z,21.77
2018-09-29T09:29:59.090Z,21.87
2018-09-29T09:32:30.402Z,21.87
2018-09-29T09:34:56.407Z,21.73
2018-09-29T09:37:22.352Z,21.69
2018-09-29T09:39:48.398Z,21.80
2018-09-29T09:42:14.392Z,21.92
2018-09-29T09:44:40.380Z,21.89
2018-09-29T09:47:06.417Z,21.96
2018-09-29T09:49:32.458Z,22.01
2018-09-29T09:51:58.411Z,22.05
2018-09-29T09:54:24.398Z,21.96
2018-09-29T09:56:50.382Z,21.97
2018-09-29T09:59:16.323Z,21.91
2018-09-29T10:01:42.287Z,21.96
2018-09-29T10:04:08.336Z,21.98
2018-09-29T10:06:34.350Z,21.97
2018-09-29T10:09:00.317Z,21.94
2018-09-29T10:11:26.414Z,21.78
2018-09-29T10:13:52.435Z,21.60
2018-09-29T10:16:18.408Z,21.49
2018-09-29T10:18:44.354Z,21.39
2018-09-29T10:21:10.350Z,21.49
2018-09-29T10:23:36.414Z,21.60
2018-09-29T10:26:02.421Z,21.71
2018-09-29T10:28:28.418Z,21.86
2018-09-29T10:30:54.464Z,21.92
2018-09-29T10:33:20.425Z,21.82
2018-09-29T10:35:46.409Z,21.75
2018-09-29T10:38:12.445Z,21.80
2018-09-29T10:40:38.490Z,21.95
2018-09-29T10:43:05.496Z,21.95
2018-09-29T10:45:31.556Z,21.93
2018-09-29T10:47:57.565Z,21.89
2018-09-29T10:50:23.569Z,21.79
2018-09-29T10:52:49.547Z,21.83
2018-09-29T10:55:15.526Z,21.72
2018-09-29T10:57:41.486Z,21.84
2018-09-29T11:00:07.434Z,21.91
2018-09-29T11:02:33.471Z,21.96
2018-09-29T11:04:59.473Z,21.92
2018-09-29T11:07:25.389Z,21.96
2018-09-29T11:09:51.374Z,21.73
2018-09-29T11:12:17.359Z,21.72
2018-09-29T11:14:43.345Z,21.87
2018-09-29T11:17:09.352Z,21.90
2018-09-29T11:19:35.312Z,21.49
2018-09-29T11:22:01.307Z,21.77
2018-09-29T11:24:28.309Z,21.81
2018-09-29T11:26:55.465Z,21.68
2018-09-29T11:29:22.518Z,21.41
2018-09-29T11:31:48.486Z,21.49
2018-09-29T11:34:14.674Z,21.75
2018-09-29T11:36:40.924Z,21.71
2018-09-29T11:39:07.170Z,21.55
2018-09-29T11:41:33.387Z,21.61
2018-09-29T11:43:59.576Z,21.73
2018-09-29T11:46:25.845Z,21.79
2018-09-29T11:48:52.081Z,21.84
2018-09-29T11:51:18.328Z,21.82
2018-09-29T11:53:44.619Z,21.80
2018-09-29T11:56:10.848Z,21.79
2018-09-29T11:58:37.133Z,21.70
2018-09-29T12:01:03.361Z,21.62
2018-09-29T12:03:29.627Z,21.61
2018-09-29T12:05:55.931Z,21.66
2018-09-29T12:08:22.319Z,21.68
2018-09-29T12:10:48.585Z,21.72
2018-09-29T12:13:14.838Z,21.74
2018-09-29T12:15:41.101Z,21.86
2018-09-29T12:18:07.311Z,21.99
2018-09-29T12:20:33.629Z,22.02
2018-09-29T12:22:59.892Z,22.07
2018-09-29T12:25:26.258Z,22.05
2018-09-29T12:27:52.496Z,22.09
2018-09-29T12:30:18.712Z,22.11
2018-09-29T12:32:44.993Z,21.95
2018-09-29T12:35:10.999Z,21.79
2018-09-29T12:37:37.147Z,21.84
2018-09-29T12:40:03.033Z,21.81
2018-09-29T12:42:29.024Z,21.73
2018-09-29T12:44:55.059Z,21.65
2018-09-29T12:47:20.917Z,21.61
2018-09-29T12:49:46.879Z,21.47
2018-09-29T12:52:12.857Z,21.47
2018-09-29T12:54:38.843Z,21.48
2018-09-29T12:57:04.780Z,21.50
2018-09-29T12:59:30.768Z,21.51
2018-09-29T13:01:56.715Z,21.55
2018-09-29T13:04:23.773Z,21.50
2018-09-29T13:06:49.735Z,21.51
2018-09-29T13:09:15.743Z,21.66
2018-09-29T13:11:41.698Z,21.70
2018-09-29T13:14:07.694Z,21.68
2018-09-29T13:16:33.647Z,21.62
2018-09-29T13:18:59.624Z,21.59
2018-09-29T13:21:25.626Z,21.57
2018-09-29T13:23:51.625Z,21.61
2018-09-29T13:26:17.582Z,21.67
2018-09-29T13:28:43.620Z,21.73
2018-09-29T13:31:09.571Z,21.82
2018-09-29T13:33:35.567Z,21.84
2018-09-29T13:36:01.540Z,21.90
2018-09-29T13:38:27.529Z,21.86
2018-09-29T13:40:53.497Z,21.78
2018-09-29T13:43:19.537Z,21.68
2018-09-29T13:45:45.516Z,21.68
2018-09-29T13:48:11.492Z,21.69
2018-09-29T13:50:37.451Z,21.73
2018-09-29T13:53:03.437Z,21.72
2018-09-29T13:55:29.399Z,21.69
2018-09-29T13:57:56.407Z,21.71
2018-09-29T14:00:22.375Z,21.69
2018-09-29T14:02:48.372Z,21.65
2018-09-29T14:05:16.361Z,21.62
2018-09-29T14:07:42.316Z,21.61
2018-09-29T14:10:08.305Z,21.61
2018-09-29T14:12:34.287Z,21.60
2018-09-29T14:15:00.255Z,21.46
2018-09-29T14:17:26.286Z,21.49
2018-09-29T14:19:52.347Z,21.48
2018-09-29T14:22:20.377Z,21.52
2018-09-29T14:24:46.379Z,21.50
2018-09-29T14:27:12.357Z,21.52
2018-09-29T14:29:38.319Z,21.55
2018-09-29T14:32:04.271Z,21.55
2018-09-29T14:34:30.228Z,21.53
2018-09-29T14:36:59.272Z,21.57
2018-09-29T14:39:25.227Z,21.55
2018-09-29T14:41:51.215Z,21.49
2018-09-29T14:44:21.560Z,21.56
2018-09-29T14:46:47.589Z,21.60
2018-09-29T14:49:13.602Z,21.62
2018-09-29T14:51:39.542Z,21.66
2018-09-29T14:54:05.551Z,21.69
2018-09-29T14:56:31.515Z,21.68
2018-09-29T14:58:57.473Z,21.69
2018-09-29T15:01:23.488Z,21.67
2018-09-29T15:03:49.456Z,21.62
2018-09-29T15:06:15.416Z,21.61
2018-09-29T15:08:41.408Z,21.53
2018-09-29T15:11:07.496Z,21.59
2018-09-29T15:13:33.496Z,21.68
2018-09-29T15:15:59.461Z,21.66
2018-09-29T15:18:25.443Z,21.63
2018-09-29T15:20:51.380Z,21.66
2018-09-29T15:23:17.401Z,21.66
2018-09-29T15:25:43.354Z,21.69
2018-09-29T15:28:09.345Z,21.70
2018-09-29T15:30:35.305Z,21.70
2018-09-29T15:33:01.263Z,21.61
2018-09-29T15:35:27.219Z,21.57
2018-09-29T15:37:53.170Z,21.58
2018-09-29T15:40:19.199Z,21.60
2018-09-29T15:42:45.290Z,21.57
2018-09-29T15:45:11.183Z,21.48
2018-09-29T15:47:37.136Z,21.43
2018-09-29T15:50:03.140Z,21.41
2018-09-29T15:52:29.102Z,21.40
2018-09-29T15:54:55.073Z,21.43
2018-09-29T15:57:21.061Z,21.57
2018-09-29T15:59:47.049Z,21.48
2018-09-29T16:02:13.089Z,21.49
2018-09-29T16:04:39.025Z,21.58
2018-09-29T16:07:04.961Z,21.55
2018-09-29T16:09:30.941Z,21.48
2018-09-29T16:11:56.883Z,21.41
2018-09-29T16:14:23.917Z,21.35
2018-09-29T16:16:49.898Z,21.10
2018-09-29T16:19:15.860Z,20.99
2018-09-29T16:21:41.839Z,21.16
2018-09-29T16:24:07.792Z,21.22
2018-09-29T16:26:33.809Z,21.25
2018-09-29T16:28:59.774Z,21.21
2018-09-29T16:31:25.708Z,21.17
2018-09-29T16:33:51.643Z,21.16
2018-09-29T16:36:17.668Z,20.96
2018-09-29T16:38:43.636Z,20.75
2018-09-29T16:41:09.598Z,20.67
2018-09-29T16:43:36.678Z,20.41
2018-09-29T16:46:02.653Z,20.47
2018-09-29T16:48:28.629Z,20.52
2018-09-29T16:50:54.597Z,20.54
2018-09-29T16:53:20.604Z,20.58
2018-09-29T16:55:46.608Z,20.60
2018-09-29T16:58:12.600Z,20.62
2018-09-29T17:00:38.617Z,20.54
2018-09-29T17:03:04.578Z,20.46
2018-09-29T17:05:30.557Z,20.41
2018-09-29T17:07:56.537Z,20.29
2018-09-29T17:10:22.581Z,20.27
2018-09-29T17:12:48.594Z,20.23
2018-09-29T17:15:14.582Z,20.19
2018-09-29T17:17:40.574Z,20.07
2018-09-29T17:20:06.548Z,19.95
2018-09-29T17:22:32.517Z,19.93
2018-09-29T17:24:58.504Z,19.99
2018-09-29T17:27:24.472Z,20.03
2018-09-29T17:29:50.451Z,19.97
2018-09-29T17:32:16.418Z,20.01
2018-09-29T17:34:42.432Z,19.97
2018-09-29T17:37:08.398Z,19.98
2018-09-29T17:39:34.368Z,19.97
2018-09-29T17:42:00.355Z,19.87
2018-09-29T17:44:26.357Z,19.68
2018-09-29T17:46:52.332Z,19.38
2018-09-29T17:49:18.318Z,19.31
2018-09-29T17:51:44.259Z,19.20
2018-09-29T17:54:10.433Z,19.11
2018-09-29T17:56:36.420Z,19.12
2018-09-29T17:59:02.408Z,19.23
2018-09-29T18:01:28.354Z,19.33
2018-09-29T18:03:54.353Z,19.26
2018-09-29T18:06:20.409Z,19.20
2018-09-29T18:08:46.385Z,19.21
2018-09-29T18:11:12.370Z,19.19
2018-09-29T18:13:38.489Z,19.16
2018-09-29T18:16:04.386Z,19.14
2018-09-29T18:18:30.341Z,19.08
2018-09-29T18:20:56.399Z,19.10
2018-09-29T18:23:22.365Z,19.17
2018-09-29T18:25:48.364Z,19.18
2018-09-29T18:28:14.442Z,19.07
2018-09-29T18:30:40.462Z,18.99
2018-09-29T18:33:06.417Z,18.95
2018-09-29T18:35:32.398Z,18.73
2018-09-29T18:37:58.417Z,18.63
2018-09-29T18:40:24.397Z,18.55
2018-09-29T18:42:50.376Z,18.54
2018-09-29T18:45:16.361Z,18.50
2018-09-29T18:47:42.397Z,18.47
2018-09-29T18:50:08.465Z,18.53
2018-09-29T18:52:34.459Z,18.55
2018-09-29T18:55:00.457Z,18.57
2018-09-29T18:57:26.488Z,18.55
2018-09-29T18:59:52.494Z,18.64
2018-09-29T19:02:18.488Z,18.60
2018-09-29T19:04:44.518Z,18.65
2018-09-29T19:07:10.469Z,18.56
2018-09-29T19:09:36.438Z,18.56
2018-09-29T19:12:02.564Z,18.56
2018-09-29T19:14:28.470Z,18.41
2018-09-29T19:16:54.483Z,18.34
2018-09-29T19:19:20.442Z,18.38
2018-09-29T19:21:46.459Z,18.41
2018-09-29T19:24:12.482Z,18.40
2018-09-29T19:26:38.447Z,18.40
2018-09-29T19:29:04.399Z,18.40
2018-09-29T19:31:30.378Z,18.42
2018-09-29T19:33:56.439Z,18.22
2018-09-29T19:36:22.506Z,18.19
2018-09-29T19:38:48.725Z,18.16
2018-09-29T19:41:14.731Z,18.06
2018-09-29T19:43:40.813Z,18.11
2018-09-29T19:46:06.779Z,17.90
2018-09-29T19:48:32.768Z,17.83
2018-09-29T19:50:58.765Z,17.82
2018-09-29T19:53:24.732Z,17.90
2018-09-29T19:55:50.759Z,17.84
2018-09-29T19:58:16.805Z,17.74
2018-09-29T20:00:42.774Z,17.64
2018-09-29T20:03:08.808Z,17.50
2018-09-29T20:05:34.793Z,17.61
2018-09-29T20:08:00.772Z,17.72
2018-09-29T20:10:26.752Z,17.77
2018-09-29T20:12:52.743Z,17.76
2018-09-29T20:15:18.685Z,17.66
2018-09-29T20:17:44.672Z,17.66
2018-09-29T20:20:10.656Z,17.48
2018-09-29T20:22:36.644Z,17.27
2018-09-29T20:25:02.626Z,17.27
2018-09-29T20:27:28.641Z,17.33
2018-09-29T20:29:54.579Z,17.36
2018-09-29T20:32:20.541Z,17.37
2018-09-29T20:34:46.497Z,17.34
2018-09-29T20:37:12.452Z,17.34
2018-09-29T20:39:38.412Z,17.12
2018-09-29T20:42:05.473Z,17.10
2018-09-29T20:44:31.425Z,17.10
2018-09-29T20:46:57.506Z,17.06
2018-09-29T20:49:23.467Z,16.95
2018-09-29T20:51:49.440Z,16.97
2018-09-29T20:54:15.399Z,16.96
2018-09-29T20:56:41.341Z,16.87
2018-09-29T20:59:07.280Z,16.90
2018-09-29T21:01:33.311Z,16.96
2018-09-29T21:03:59.203Z,16.85
2018-09-29T21:06:25.157Z,16.86
2018-09-29T21:08:51.120Z,16.82
2018-09-29T21:11:17.066Z,16.69
2018-09-29T21:13:43.075Z,16.70
2018-09-29T21:16:08.995Z,16.53
2018-09-29T21:18:34.961Z,16.36
2018-09-29T21:21:00.921Z,16.25
2018-09-29T21:23:26.889Z,16.16
2018-09-29T21:25:52.890Z,16.03
2018-09-29T21:28:18.865Z,15.93
2018-09-29T21:30:44.809Z,15.84
2018-09-29T21:33:10.766Z,15.90
2018-09-29T21:35:36.708Z,15.79
2018-09-29T21:38:02.654Z,15.70
2018-09-29T21:40:28.609Z,15.59
2018-09-29T21:42:54.557Z,15.47
2018-09-29T21:45:21.462Z,15.41
2018-09-29T21:47:47.418Z,15.30
2018-09-29T21:50:13.385Z,15.29
2018-09-29T21:52:39.330Z,15.38
2018-09-29T21:55:05.290Z,15.54
2018-09-29T21:57:31.216Z,15.47
2018-09-29T21:59:57.165Z,15.46
2018-09-29T22:02:23.139Z,15.36
2018-09-29T22:04:49.095Z,15.31
2018-09-29T22:07:16.085Z,15.31
2018-09-29T22:09:42.060Z,15.28
2018-09-29T22:12:08.054Z,15.21
2018-09-29T22:14:34.006Z,15.27
2018-09-29T22:16:59.980Z,15.14
2018-09-29T22:19:25.936Z,15.21
2018-09-29T22:21:51.875Z,15.17
2018-09-29T22:24:17.816Z,15.05
2018-09-29T22:26:43.787Z,15.08
2018-09-29T22:29:09.771Z,15.12
2018-09-29T22:31:35.798Z,15.22
2018-09-29T22:34:01.734Z,15.21
2018-09-29T22:36:27.668Z,15.20
2018-09-29T22:38:53.622Z,15.22
2018-09-29T22:41:19.568Z,15.05
2018-09-29T22:43:45.528Z,15.00
2018-09-29T22:46:11.482Z,14.86
2018-09-29T22:48:37.431Z,14.92
2018-09-29T22:51:03.449Z,14.87
2018-09-29T22:53:29.411Z,14.83
2018-09-29T22:55:55.392Z,14.77
2018-09-29T22:58:21.358Z,14.76
2018-09-29T23:00:47.351Z,14.76
2018-09-29T23:03:13.325Z,14.76
2018-09-29T23:05:39.295Z,14.84
2018-09-29T23:08:05.256Z,14.87
2018-09-29T23:10:31.244Z,14.76
2018-09-29T23:12:57.205Z,14.70
2018-09-29T23:15:23.196Z,14.68
2018-09-29T23:17:49.158Z,14.67
2018-09-29T23:20:15.121Z,14.71
2018-09-29T23:22:41.077Z,14.69
2018-09-29T23:25:07.057Z,14.54
2018-09-29T23:27:32.991Z,14.49
2018-09-29T23:29:58.952Z,14.58
2018-09-29T23:32:24.924Z,14.61
2018-09-29T23:34:50.883Z,14.68
2018-09-29T23:37:16.838Z,14.79
2018-09-29T23:39:42.828Z,14.83
2018-09-29T23:42:08.800Z,14.80
2018-09-29T23:44:34.764Z,14.72
2018-09-29T23:47:00.706Z,14.55
2018-09-29T23:49:26.701Z,14.41
2018-09-29T23:51:52.681Z,14.58
2018-09-29T23:54:18.658Z,14.71
2018-09-29T23:56:44.615Z,14.69
2018-09-29T23:59:10.565Z,14.68
